»·PEaware :: N235B KSNA-KBUR

N235B :: KSNA-KBUR

FLIGHT INFORMATION

Flight Status: Arrived
Operator: Privately registered:
United States
More flights under this callsign
Pilot: Jason D. (29273)
Aircraft: ECLIPSE 500
(EA50)
More flights by this aircraft type
Origin: KSNA John Wayne-Orange Co
United States
Destination: KBUR Bob Hope-Burbank
United States
More flights between these airports :: More routes between these airports
Route: SLI V23 LAX LAX316R SILEX
File this flight plan on PilotEdge
Remarks:
Altitude:
(Current/Filed)
6,000ft
Speed:
(Current/Filed)
220kts
Departed: 14-Aug-20 04:39 PM
Arrived: 14-Aug-20 05:08 PM
Distance/Time
Traveled:
40nm/0:29
Distance/Time
To Go:
Arrived

Flight Plot

Page will automatically refresh every two minutes.


Map Options




Map Legend


Flown Route
Filed Route
Departure Airport
Arrival Airport
Navaid (VOR, NDB)
Fix

Horizontal Profiles

Position Reports

Time Latitude Longitude Heading Altitude Ground
Speed
14-Aug-20 16:18 33.675767 -117.871518 220 59ft 0kts
14-Aug-20 16:19 33.675767 -117.871518 220 59ft 0kts
14-Aug-20 16:20 33.675767 -117.871518 220 59ft 0kts
14-Aug-20 16:21 33.675767 -117.871518 220 59ft 0kts
14-Aug-20 16:22 33.675767 -117.871518 220 59ft 0kts
14-Aug-20 16:23 33.675767 -117.871518 220 59ft 0kts
14-Aug-20 16:24 33.675767 -117.871518 220 59ft 0kts
14-Aug-20 16:25 33.675767 -117.871518 220 59ft 0kts
14-Aug-20 16:26 33.675767 -117.871518 220 59ft 0kts
14-Aug-20 16:27 33.675767 -117.871518 220 59ft 0kts
14-Aug-20 16:28 33.675767 -117.871518 220 59ft 0kts
14-Aug-20 16:28 33.675767 -117.871518 220 59ft 0kts
14-Aug-20 16:29 33.675767 -117.871518 220 59ft 0kts
14-Aug-20 16:31 33.675767 -117.871518 220 59ft 0kts
14-Aug-20 16:31 33.675767 -117.871518 220 59ft 0kts
14-Aug-20 16:32 33.675332 -117.871011 128 59ft 9kts
14-Aug-20 16:33 33.678059 -117.868839 27 59ft 21kts
14-Aug-20 16:34 33.681368 -117.866920 27 59ft 7kts
14-Aug-20 16:35 33.681930 -117.866125 91 59ft 0kts
14-Aug-20 16:36 33.681930 -117.866125 91 59ft 0kts
14-Aug-20 16:37 33.681620 -117.865364 142 59ft 15kts
14-Aug-20 16:38 33.677591 -117.867671 206 59ft 90kts
14-Aug-20 16:39 33.642862 -117.879809 186 2226ft 144kts
14-Aug-20 16:40 33.599088 -117.886784 186 4638ft 182kts
14-Aug-20 16:41 33.540458 -117.896447 186 5821ft 202kts
14-Aug-20 16:42 33.480382 -117.906371 186 6012ft 263kts
14-Aug-20 16:43 33.412879 -117.941575 261 6010ft 252kts
14-Aug-20 16:44 33.459719 -117.994573 303 5970ft 233kts
14-Aug-20 16:45 33.456756 -118.061944 237 5753ft 226kts
14-Aug-20 16:46 33.493227 -118.122104 322 6025ft 279kts
14-Aug-20 16:47 33.558835 -118.182633 322 6412ft 311kts
14-Aug-20 16:48 33.623830 -118.240525 322 6012ft 269kts
14-Aug-20 16:49 33.683329 -118.292625 322 6016ft 266kts
14-Aug-20 16:50 33.742243 -118.343864 322 6019ft 265kts
14-Aug-20 16:51 33.797822 -118.398715 323 5997ft 258kts
14-Aug-20 16:52 33.862192 -118.433531 355 6024ft 307kts
14-Aug-20 16:53 33.928546 -118.439747 345 6405ft 317kts
14-Aug-20 16:54 33.996392 -118.462113 315 7055ft 261kts
14-Aug-20 16:55 34.058679 -118.503224 324 6014ft 242kts
14-Aug-20 16:56 34.108615 -118.548312 325 6017ft 211kts
14-Aug-20 16:57 34.136668 -118.608942 292 5946ft 230kts
14-Aug-20 16:58 34.165330 -118.687800 292 5211ft 256kts
14-Aug-20 16:59 34.217467 -118.702311 63 4217ft 240kts
14-Aug-20 17:00 34.199226 -118.636377 99 3990ft 216kts
14-Aug-20 17:01 34.204663 -118.574084 86 3501ft 222kts
14-Aug-20 17:02 34.206329 -118.520332 85 2866ft 127kts
14-Aug-20 17:03 34.203107 -118.480156 91 2427ft 133kts
14-Aug-20 17:04 34.199007 -118.442135 94 2221ft 134kts
14-Aug-20 17:05 34.198728 -118.400174 91 1248ft 122kts
14-Aug-20 17:06 34.198018 -118.368110 92 745ft 101kts
14-Aug-20 17:07 34.198483 -118.357977 355 711ft 0kts
14-Aug-20 17:08 34.198483 -118.357977 355 711ft 0kts
14-Aug-20 17:09 34.198483 -118.357977 355 711ft 0kts
14-Aug-20 17:10 34.198861 -118.357949 354 713ft 15kts
14-Aug-20 17:11 34.201349 -118.359773 154 726ft 0kts
14-Aug-20 17:12 34.201349 -118.359773 154 726ft 0kts
14-Aug-20 17:13 34.201349 -118.359773 154 726ft 0kts
14-Aug-20 17:14 34.201349 -118.359773 154 726ft 0kts
14-Aug-20 17:15 34.201349 -118.359773 154 726ft 0kts
14-Aug-20 17:16 34.201349 -118.359773 154 726ft 0kts
14-Aug-20 17:17 34.201349 -118.359773 154 726ft 0kts
14-Aug-20 17:18 34.201349 -118.359773 154 726ft 0kts
14-Aug-20 17:19 34.201349 -118.359773 154 726ft 0kts
14-Aug-20 17:20 34.201349 -118.359773 154 726ft 0kts
14-Aug-20 17:21 34.201349 -118.359773 154 726ft 0kts

Navigation Log

Ident Type
Flight plan parsing failed, navigation log unavailable